RJNF(METAR)
07/27 16:00
RJNF 270700Z 35010KT 9999 FEW015 BKN030 OVCXXX 27/25 Q1000 RMK
A2953=
戻る
トップページへ戻る
IMOC Co,.Ltd.